createdAt,value
2023-01-13T00:01:28.187Z,10.19
2023-01-13T00:03:57.344Z,10.11
2023-01-13T00:06:26.302Z,9.93
2023-01-13T00:08:54.712Z,9.82
2023-01-13T00:11:23.491Z,9.58
2023-01-13T00:13:51.722Z,9.50
2023-01-13T00:16:20.972Z,9.58
2023-01-13T00:18:51.276Z,9.66
2023-01-13T00:21:22.375Z,9.64
2023-01-13T00:23:54.124Z,9.56
2023-01-13T00:26:28.170Z,9.35
2023-01-13T00:28:58.483Z,9.07
2023-01-13T00:31:29.319Z,9.00
2023-01-13T00:33:59.577Z,9.23
2023-01-13T00:36:29.319Z,9.46
2023-01-13T00:38:58.073Z,9.45
2023-01-13T00:41:27.543Z,9.32
2023-01-13T00:43:55.608Z,9.11
2023-01-13T00:46:24.026Z,8.99
2023-01-13T00:48:52.347Z,8.97
2023-01-13T00:51:21.916Z,8.93
2023-01-13T00:53:52.004Z,8.99
2023-01-13T00:56:39.256Z,9.03
2023-01-13T00:59:12.278Z,8.93
2023-01-13T01:01:41.442Z,8.85
2023-01-13T01:04:09.560Z,8.79
2023-01-13T01:06:37.911Z,8.52
2023-01-13T01:09:06.876Z,8.72
2023-01-13T01:11:35.309Z,9.15
2023-01-13T01:14:04.379Z,9.32
2023-01-13T01:16:34.176Z,9.38
2023-01-13T01:19:03.676Z,9.51
2023-01-13T01:21:32.627Z,9.68
2023-01-13T01:24:02.883Z,9.65
2023-01-13T01:26:31.961Z,9.64
2023-01-13T01:29:02.299Z,9.43
2023-01-13T01:31:33.552Z,9.24
2023-01-13T01:34:01.981Z,9.38
2023-01-13T01:36:30.475Z,9.39
2023-01-13T01:39:00.078Z,9.49
2023-01-13T01:41:32.512Z,9.65
2023-01-13T01:44:38.402Z,9.77
2023-01-13T01:47:06.712Z,9.72
2023-01-13T01:49:37.367Z,9.63
2023-01-13T01:52:39.164Z,9.71
2023-01-13T01:55:34.601Z,9.61
2023-01-13T01:58:15.515Z,9.51
2023-01-13T02:00:44.228Z,9.51
2023-01-13T02:03:13.217Z,9.57
2023-01-13T02:05:41.686Z,9.54
2023-01-13T02:08:12.649Z,9.51
2023-01-13T02:10:42.984Z,9.41
2023-01-13T02:13:13.653Z,9.37
2023-01-13T02:15:51.053Z,9.35
2023-01-13T02:18:37.974Z,9.38
2023-01-13T02:21:40.042Z,9.31
2023-01-13T02:24:51.450Z,9.21
2023-01-13T02:27:25.400Z,9.07
2023-01-13T02:30:50.817Z,9.02
2023-01-13T02:33:49.336Z,9.00
2023-01-13T02:36:35.313Z,8.79
2023-01-13T02:39:16.911Z,8.83
2023-01-13T02:42:07.822Z,8.85
2023-01-13T02:44:59.031Z,8.95
2023-01-13T02:47:31.193Z,9.01
2023-01-13T02:50:04.068Z,9.08
2023-01-13T02:52:38.272Z,9.08
2023-01-13T02:55:23.685Z,9.10
2023-01-13T02:57:54.195Z,9.16
2023-01-13T03:00:23.898Z,9.08
2023-01-13T03:02:52.556Z,9.02
2023-01-13T03:05:20.885Z,8.79
2023-01-13T03:08:01.801Z,8.52
2023-01-13T03:10:33.500Z,8.40
2023-01-13T03:13:04.629Z,8.40
2023-01-13T03:16:06.519Z,8.39
2023-01-13T03:18:48.006Z,8.43
2023-01-13T03:21:25.567Z,8.46
2023-01-13T03:23:58.501Z,8.69
2023-01-13T03:26:35.784Z,8.83
2023-01-13T03:29:24.597Z,8.93
2023-01-13T03:32:05.806Z,9.10
2023-01-13T03:34:45.953Z,9.20
2023-01-13T03:37:17.636Z,8.99
2023-01-13T03:39:54.966Z,8.90
2023-01-13T03:42:26.379Z,9.13
2023-01-13T03:45:01.581Z,9.21
2023-01-13T03:47:49.387Z,8.95
2023-01-13T03:50:23.517Z,9.11
2023-01-13T03:53:15.795Z,9.40
2023-01-13T03:55:48.850Z,9.58
2023-01-13T03:58:35.436Z,9.58
2023-01-13T04:01:35.315Z,9.57
2023-01-13T04:04:07.226Z,9.68
2023-01-13T04:06:50.605Z,9.78
2023-01-13T04:09:21.207Z,9.61
2023-01-13T04:11:56.640Z,9.11
2023-01-13T04:14:26.166Z,8.79
2023-01-13T04:16:57.252Z,8.81
2023-01-13T04:19:25.380Z,8.93
2023-01-13T04:21:53.409Z,8.92
2023-01-13T04:24:21.697Z,8.79
2023-01-13T04:26:50.666Z,8.67
2023-01-13T04:29:18.729Z,8.60
2023-01-13T04:31:46.911Z,8.62
2023-01-13T04:34:15.075Z,8.73
2023-01-13T04:36:43.799Z,8.90
2023-01-13T04:39:12.483Z,9.03
2023-01-13T04:41:58.833Z,9.03
2023-01-13T04:44:27.565Z,8.99
2023-01-13T04:46:56.362Z,9.18
2023-01-13T04:49:24.801Z,9.29
2023-01-13T04:51:53.246Z,9.30
2023-01-13T04:54:21.670Z,8.99
2023-01-13T04:56:49.953Z,9.15
2023-01-13T04:59:18.010Z,9.34
2023-01-13T05:01:46.239Z,9.50
2023-01-13T05:04:15.632Z,9.59
2023-01-13T05:06:43.960Z,9.64
2023-01-13T05:09:13.482Z,9.75
2023-01-13T05:12:00.941Z,9.88
2023-01-13T05:14:48.037Z,9.93
2023-01-13T05:17:22.707Z,9.96
2023-01-13T05:19:51.295Z,9.82
2023-01-13T05:22:38.118Z,9.80
2023-01-13T05:25:24.659Z,9.98
2023-01-13T05:27:55.986Z,10.04
2023-01-13T05:30:26.771Z,9.88
2023-01-13T05:32:55.285Z,9.68
2023-01-13T05:35:24.480Z,9.48
2023-01-13T05:37:52.495Z,9.56
2023-01-13T05:40:39.169Z,9.57
2023-01-13T05:43:24.933Z,9.54
2023-01-13T05:46:05.664Z,9.53
2023-01-13T05:48:42.652Z,9.54
2023-01-13T05:51:12.875Z,9.56
2023-01-13T05:53:41.618Z,9.44
2023-01-13T05:56:11.321Z,9.28
2023-01-13T05:58:39.658Z,9.30
2023-01-13T06:01:09.547Z,9.20
2023-01-13T06:03:38.487Z,9.17
2023-01-13T06:06:09.193Z,9.11
2023-01-13T06:08:39.695Z,8.78
2023-01-13T06:11:08.222Z,8.66
2023-01-13T06:13:36.296Z,8.60
2023-01-13T06:16:05.092Z,8.67
2023-01-13T06:18:33.474Z,8.83
2023-01-13T06:21:01.842Z,8.82
2023-01-13T06:23:32.170Z,8.56
2023-01-13T06:26:08.483Z,8.89
2023-01-13T06:28:36.708Z,9.16
2023-01-13T06:31:07.906Z,9.11
2023-01-13T06:33:44.640Z,9.16
2023-01-13T06:36:26.999Z,9.24
2023-01-13T06:38:59.650Z,9.28
2023-01-13T06:41:48.423Z,9.07
2023-01-13T06:44:17.918Z,8.99
2023-01-13T06:46:46.861Z,8.95
2023-01-13T06:49:15.038Z,8.97
2023-01-13T06:51:44.421Z,9.10
2023-01-13T06:54:12.702Z,9.18
2023-01-13T06:56:40.768Z,9.30
2023-01-13T06:59:09.069Z,9.44
2023-01-13T07:01:37.232Z,9.45
2023-01-13T07:04:05.937Z,9.52
2023-01-13T07:06:34.029Z,9.52
2023-01-13T07:09:02.999Z,9.61
2023-01-13T07:11:31.337Z,9.65
2023-01-13T07:14:20.299Z,9.71
2023-01-13T07:16:48.520Z,9.78
2023-01-13T07:19:23.279Z,9.79
2023-01-13T07:21:52.708Z,9.97
2023-01-13T07:24:22.571Z,10.05
2023-01-13T07:26:52.156Z,10.18
2023-01-13T07:29:23.058Z,10.33
2023-01-13T07:31:51.157Z,10.40
2023-01-13T07:34:19.505Z,10.34
2023-01-13T07:36:47.951Z,10.39
2023-01-13T07:39:15.997Z,10.31
2023-01-13T07:42:02.687Z,10.10
2023-01-13T07:44:30.796Z,10.04
2023-01-13T07:46:58.917Z,10.15
2023-01-13T07:49:27.179Z,10.34
2023-01-13T07:51:55.244Z,10.42
2023-01-13T07:54:35.137Z,10.36
2023-01-13T07:57:08.697Z,10.37
2023-01-13T07:59:37.210Z,10.42
2023-01-13T08:02:05.483Z,10.55
2023-01-13T08:04:34.146Z,10.57
2023-01-13T08:07:02.469Z,10.58
2023-01-13T08:09:30.560Z,10.49
2023-01-13T08:12:17.367Z,10.54
2023-01-13T08:14:45.772Z,10.70
2023-01-13T08:17:14.058Z,10.85
2023-01-13T08:19:42.255Z,11.03
2023-01-13T08:22:10.390Z,11.19
2023-01-13T08:24:38.899Z,11.09
2023-01-13T08:27:07.212Z,11.02
2023-01-13T08:29:35.424Z,11.09
2023-01-13T08:32:03.503Z,11.15
2023-01-13T08:34:31.618Z,11.26
2023-01-13T08:36:59.839Z,11.47
2023-01-13T08:39:28.170Z,11.51
2023-01-13T08:41:56.651Z,11.59
2023-01-13T08:44:27.735Z,11.59
2023-01-13T08:46:56.566Z,11.65
2023-01-13T08:49:25.615Z,11.78
2023-01-13T08:51:54.308Z,11.80
2023-01-13T08:54:22.793Z,11.78
2023-01-13T08:56:51.073Z,11.59
2023-01-13T08:59:20.463Z,11.32
2023-01-13T09:01:48.780Z,11.37
2023-01-13T09:04:20.233Z,11.53
2023-01-13T09:06:49.461Z,11.58
2023-01-13T09:09:18.164Z,11.72
2023-01-13T09:12:07.945Z,11.85
2023-01-13T09:14:38.318Z,12.08
2023-01-13T09:17:07.944Z,12.37
2023-01-13T09:19:36.952Z,12.63
2023-01-13T09:22:05.306Z,12.76
2023-01-13T09:24:33.627Z,12.83
2023-01-13T09:27:02.314Z,12.89
2023-01-13T09:29:30.486Z,13.02
2023-01-13T09:31:58.496Z,13.15
2023-01-13T09:34:46.593Z,13.22
2023-01-13T09:37:14.987Z,13.18
2023-01-13T09:39:43.434Z,13.28
2023-01-13T09:42:33.375Z,13.39
2023-01-13T09:45:09.394Z,13.51
2023-01-13T09:48:00.103Z,13.49
2023-01-13T09:50:46.907Z,13.25
2023-01-13T09:53:40.474Z,13.08
2023-01-13T09:56:11.316Z,13.08
2023-01-13T09:58:39.583Z,13.09
2023-01-13T10:01:29.598Z,13.17
2023-01-13T10:04:02.712Z,13.11
2023-01-13T10:06:38.818Z,12.84
2023-01-13T10:09:30.860Z,12.11
2023-01-13T10:12:19.871Z,11.96
2023-01-13T10:14:54.642Z,12.09
2023-01-13T10:17:36.951Z,12.10
2023-01-13T10:20:08.323Z,12.13
2023-01-13T10:22:59.219Z,12.21
2023-01-13T10:25:55.062Z,12.28
2023-01-13T10:28:25.249Z,12.38
2023-01-13T10:30:53.691Z,12.54
2023-01-13T10:33:27.774Z,12.74
2023-01-13T10:36:02.471Z,12.91
2023-01-13T10:38:38.031Z,13.03
2023-01-13T10:41:19.580Z,13.17
2023-01-13T10:44:04.311Z,13.27
2023-01-13T10:46:35.325Z,13.28
2023-01-13T10:49:23.205Z,13.16
2023-01-13T10:51:51.335Z,13.17
2023-01-13T10:54:25.316Z,13.24
2023-01-13T10:57:13.989Z,13.29
2023-01-13T10:59:42.739Z,13.18
2023-01-13T11:02:25.295Z,13.15
2023-01-13T11:04:54.614Z,12.38
2023-01-13T11:07:30.927Z,11.72
2023-01-13T11:10:20.878Z,11.24
2023-01-13T11:13:01.272Z,11.30
2023-01-13T11:15:58.921Z,11.61
2023-01-13T11:18:52.111Z,11.79
2023-01-13T11:21:51.697Z,11.90
2023-01-13T11:24:45.168Z,11.92
2023-01-13T11:27:20.571Z,11.96
2023-01-13T11:30:10.030Z,12.06
2023-01-13T11:32:56.283Z,12.33
2023-01-13T11:35:25.368Z,12.47
2023-01-13T11:38:03.082Z,12.57
2023-01-13T11:40:37.936Z,12.65
2023-01-13T11:43:29.963Z,12.86
2023-01-13T11:46:01.226Z,12.93
2023-01-13T11:48:32.893Z,12.92
2023-01-13T11:51:00.901Z,13.03
2023-01-13T11:53:34.713Z,13.17
2023-01-13T11:56:08.969Z,12.88
2023-01-13T11:58:57.888Z,12.33
2023-01-13T12:01:32.790Z,12.12
2023-01-13T12:04:18.516Z,11.88
2023-01-13T12:06:50.659Z,11.02
2023-01-13T12:09:26.105Z,10.86
2023-01-13T12:12:45.077Z,10.60
2023-01-13T12:15:22.567Z,10.48
2023-01-13T12:18:07.626Z,10.54
2023-01-13T12:20:52.800Z,10.54
2023-01-13T12:23:30.201Z,10.58
2023-01-13T12:26:11.891Z,10.58
2023-01-13T12:29:00.799Z,10.73
2023-01-13T12:31:30.329Z,10.88
2023-01-13T12:34:14.441Z,10.75
2023-01-13T12:37:11.849Z,10.30
2023-01-13T12:39:39.868Z,10.13
2023-01-13T12:42:35.232Z,10.10
2023-01-13T12:45:12.363Z,10.23
2023-01-13T12:47:44.403Z,10.37
2023-01-13T12:50:27.320Z,10.50
2023-01-13T12:53:21.380Z,10.63
2023-01-13T12:55:53.364Z,10.78
2023-01-13T12:58:28.438Z,10.86
2023-01-13T13:01:12.109Z,10.79
2023-01-13T13:03:40.899Z,10.66
2023-01-13T13:06:20.866Z,10.64
2023-01-13T13:09:16.303Z,10.67
2023-01-13T13:11:58.260Z,10.50
2023-01-13T13:14:41.839Z,10.37
2023-01-13T13:17:28.581Z,10.44
2023-01-13T13:19:58.325Z,10.34
2023-01-13T13:22:26.338Z,10.18
2023-01-13T13:24:54.646Z,10.13
2023-01-13T13:27:27.735Z,10.17
2023-01-13T13:30:13.420Z,10.15
2023-01-13T13:32:44.786Z,10.20
2023-01-13T13:35:40.387Z,10.26
2023-01-13T13:38:49.923Z,10.29
2023-01-13T13:41:41.447Z,10.39
2023-01-13T13:44:37.577Z,10.50
2023-01-13T13:47:08.019Z,10.56
2023-01-13T13:49:41.424Z,10.59
2023-01-13T13:52:18.287Z,10.68
2023-01-13T13:54:52.116Z,10.69
2023-01-13T13:57:39.432Z,10.69
2023-01-13T14:00:33.515Z,10.60
2023-01-13T14:03:05.578Z,10.63
2023-01-13T14:05:36.193Z,10.61
2023-01-13T14:08:14.804Z,10.62
2023-01-13T14:10:45.234Z,10.57
2023-01-13T14:13:28.780Z,10.46
2023-01-13T14:16:15.543Z,10.41
2023-01-13T14:18:48.328Z,10.33
2023-01-13T14:21:19.606Z,10.21
2023-01-13T14:23:53.851Z,10.00
2023-01-13T14:26:27.894Z,9.97
2023-01-13T14:28:58.502Z,9.83
2023-01-13T14:31:27.321Z,9.75
2023-01-13T14:33:58.368Z,9.75
2023-01-13T14:36:32.712Z,9.73
2023-01-13T14:39:03.975Z,9.71
2023-01-13T14:41:43.104Z,9.55
2023-01-13T14:44:31.543Z,9.48
2023-01-13T14:47:03.333Z,9.43
2023-01-13T14:49:39.661Z,9.37
2023-01-13T14:52:21.144Z,9.29
2023-01-13T14:55:27.590Z,9.26
2023-01-13T14:58:23.432Z,9.17
2023-01-13T15:00:53.114Z,9.07
2023-01-13T15:03:21.811Z,9.00
2023-01-13T15:05:52.181Z,8.92
2023-01-13T15:08:27.505Z,8.84
2023-01-13T15:11:03.532Z,8.68
2023-01-13T15:13:52.828Z,8.54
2023-01-13T15:16:25.279Z,8.44
2023-01-13T15:18:56.236Z,8.30
2023-01-13T15:21:25.427Z,8.22
2023-01-13T15:23:53.704Z,8.21
2023-01-13T15:26:28.420Z,8.18
2023-01-13T15:28:59.252Z,8.08
2023-01-13T15:31:28.326Z,7.94
2023-01-13T15:33:57.243Z,7.92
2023-01-13T15:36:28.912Z,7.88
2023-01-13T15:38:58.405Z,7.79
2023-01-13T15:41:45.707Z,7.76
2023-01-13T15:44:34.063Z,7.73
2023-01-13T15:47:08.388Z,7.68
2023-01-13T15:49:42.227Z,7.68
2023-01-13T15:52:23.512Z,7.66
2023-01-13T15:54:53.136Z,7.66
2023-01-13T15:57:22.282Z,7.70
2023-01-13T15:59:51.973Z,7.76
2023-01-13T16:02:22.513Z,7.72
2023-01-13T16:04:53.912Z,7.69
2023-01-13T16:07:24.800Z,7.62
2023-01-13T16:09:53.585Z,7.53
2023-01-13T16:12:21.759Z,7.53
2023-01-13T16:14:49.840Z,7.48
2023-01-13T16:17:24.093Z,7.42
2023-01-13T16:19:52.327Z,7.29
2023-01-13T16:22:20.417Z,7.16
2023-01-13T16:24:48.705Z,7.10
2023-01-13T16:27:22.397Z,7.08
2023-01-13T16:29:51.860Z,7.10
2023-01-13T16:32:21.129Z,7.03
2023-01-13T16:34:49.891Z,6.94
2023-01-13T16:37:25.898Z,6.93
2023-01-13T16:39:55.063Z,6.94
2023-01-13T16:42:24.174Z,7.02
2023-01-13T16:44:53.044Z,7.08
2023-01-13T16:47:22.885Z,7.07
2023-01-13T16:49:51.561Z,7.08
2023-01-13T16:52:19.604Z,7.04
2023-01-13T16:54:47.685Z,7.02
2023-01-13T16:57:15.966Z,6.97
2023-01-13T16:59:44.363Z,6.90
2023-01-13T17:02:15.118Z,6.86
2023-01-13T17:04:43.597Z,6.85
2023-01-13T17:07:16.730Z,6.81
2023-01-13T17:09:45.033Z,6.79
2023-01-13T17:12:13.422Z,6.79
2023-01-13T17:14:43.528Z,6.76
2023-01-13T17:17:43.174Z,6.77
2023-01-13T17:20:12.917Z,6.75
2023-01-13T17:22:42.415Z,6.68
2023-01-13T17:25:13.547Z,6.61
2023-01-13T17:27:42.320Z,6.57
2023-01-13T17:30:14.194Z,6.51
2023-01-13T17:32:42.461Z,6.43
2023-01-13T17:35:10.588Z,6.38
2023-01-13T17:37:38.617Z,6.33
2023-01-13T17:40:07.718Z,6.26
2023-01-13T17:42:37.261Z,6.26
2023-01-13T17:45:07.072Z,6.32
2023-01-13T17:47:35.345Z,6.34
2023-01-13T17:50:04.841Z,6.34
2023-01-13T17:52:33.561Z,6.39
2023-01-13T17:55:01.701Z,6.37
2023-01-13T17:57:29.869Z,6.31
2023-01-13T17:59:59.724Z,6.28
2023-01-13T18:02:30.206Z,6.21
2023-01-13T18:04:58.514Z,6.16
2023-01-13T18:07:26.558Z,6.11
2023-01-13T18:09:54.852Z,6.11
2023-01-13T18:12:23.435Z,6.11
2023-01-13T18:14:51.587Z,6.17
2023-01-13T18:17:19.684Z,6.16
2023-01-13T18:20:06.455Z,6.08
2023-01-13T18:22:52.851Z,5.93
2023-01-13T18:25:39.372Z,5.94
2023-01-13T18:28:07.645Z,6.02
2023-01-13T18:30:35.770Z,6.06
2023-01-13T18:33:04.186Z,6.12
2023-01-13T18:35:32.463Z,6.19
2023-01-13T18:38:00.433Z,6.18
2023-01-13T18:40:28.606Z,6.17
2023-01-13T18:42:59.033Z,6.19
2023-01-13T18:45:29.951Z,6.18
2023-01-13T18:48:00.823Z,6.20
2023-01-13T18:50:30.515Z,6.30
2023-01-13T18:52:59.039Z,6.37
2023-01-13T18:55:28.821Z,6.20
2023-01-13T18:57:57.286Z,6.09
2023-01-13T19:00:27.253Z,6.13
2023-01-13T19:05:36.329Z,6.17
2023-01-13T19:08:05.539Z,6.16
2023-01-13T19:10:33.763Z,6.24
2023-01-13T19:13:02.321Z,6.41
2023-01-13T19:15:30.759Z,6.57
2023-01-13T19:17:58.834Z,6.38
2023-01-13T19:20:26.880Z,6.15
2023-01-13T19:22:55.084Z,5.99
2023-01-13T19:25:23.362Z,5.89
2023-01-13T19:27:51.634Z,5.88
2023-01-13T19:30:19.932Z,5.90
2023-01-13T19:32:48.078Z,5.91
2023-01-13T19:35:18.201Z,5.92
2023-01-13T19:37:46.989Z,6.07
2023-01-13T19:40:15.811Z,6.20
2023-01-13T19:43:13.241Z,6.21
2023-01-13T19:45:41.306Z,6.11
2023-01-13T19:48:09.526Z,5.91
2023-01-13T19:50:41.570Z,6.03
2023-01-13T19:53:16.653Z,6.30
2023-01-13T19:55:48.399Z,6.42
2023-01-13T19:58:20.817Z,6.54
2023-01-13T20:00:49.160Z,6.69
2023-01-13T20:03:20.842Z,6.84
2023-01-13T20:05:49.714Z,7.08
2023-01-13T20:08:22.667Z,7.18
2023-01-13T20:11:11.034Z,7.13
2023-01-13T20:13:39.267Z,6.89
2023-01-13T20:16:07.931Z,6.85
2023-01-13T20:18:37.323Z,7.15
2023-01-13T20:21:06.504Z,7.34
2023-01-13T20:23:34.552Z,7.30
2023-01-13T20:26:02.653Z,7.41
2023-01-13T20:28:30.699Z,7.56
2023-01-13T20:30:58.697Z,7.65
2023-01-13T20:33:26.818Z,7.61
2023-01-13T20:35:58.637Z,7.58
2023-01-13T20:38:26.896Z,7.42
2023-01-13T20:40:59.471Z,7.14
2023-01-13T20:43:27.817Z,7.22
2023-01-13T20:45:55.923Z,7.39
2023-01-13T20:48:24.195Z,7.41
2023-01-13T20:50:54.339Z,7.18
2023-01-13T20:53:22.691Z,7.01
2023-01-13T20:55:51.066Z,6.85
2023-01-13T20:58:19.136Z,6.88
2023-01-13T21:00:48.402Z,6.75
2023-01-13T21:03:16.515Z,6.84
2023-01-13T21:05:44.579Z,6.70
2023-01-13T21:08:12.759Z,6.46
2023-01-13T21:10:40.957Z,6.50
2023-01-13T21:13:29.673Z,6.39
2023-01-13T21:15:58.076Z,6.34
2023-01-13T21:18:45.078Z,6.56
2023-01-13T21:21:13.761Z,6.69
2023-01-13T21:23:43.805Z,6.66
2023-01-13T21:26:14.941Z,6.84
2023-01-13T21:28:42.933Z,7.13
2023-01-13T21:31:11.615Z,6.96
2023-01-13T21:33:39.978Z,6.87
2023-01-13T21:36:11.117Z,7.05
2023-01-13T21:38:39.824Z,6.88
2023-01-13T21:41:09.311Z,6.73
2023-01-13T21:43:56.303Z,6.74
2023-01-13T21:46:43.483Z,6.77
2023-01-13T21:49:11.781Z,6.97
2023-01-13T21:51:40.066Z,7.14
2023-01-13T21:54:08.081Z,7.06
2023-01-13T21:56:36.077Z,7.18
2023-01-13T21:59:04.145Z,7.41
2023-01-13T22:01:32.409Z,7.58
2023-01-13T22:04:12.651Z,7.26
2023-01-13T22:06:40.850Z,7.19
2023-01-13T22:09:08.937Z,7.35
2023-01-13T22:11:37.112Z,7.44
2023-01-13T22:14:11.185Z,7.34
2023-01-13T22:16:42.361Z,7.33
2023-01-13T22:19:10.852Z,7.31
2023-01-13T22:21:40.048Z,7.53
2023-01-13T22:24:08.349Z,7.65
2023-01-13T22:26:36.594Z,7.72
2023-01-13T22:29:04.673Z,7.47
2023-01-13T22:31:32.774Z,7.14
2023-01-13T22:34:01.326Z,7.16
2023-01-13T22:36:29.505Z,7.17
2023-01-13T22:39:00.394Z,7.14
2023-01-13T22:41:28.949Z,7.26
2023-01-13T22:43:57.352Z,7.22
2023-01-13T22:46:25.662Z,7.36
2023-01-13T22:48:56.045Z,7.34
2023-01-13T22:51:25.219Z,7.44
2023-01-13T22:53:54.381Z,7.62
2023-01-13T22:56:24.917Z,7.71
2023-01-13T22:58:58.428Z,7.76
2023-01-13T23:01:32.902Z,7.65
2023-01-13T23:04:02.237Z,7.40
2023-01-13T23:06:33.299Z,7.35
2023-01-13T23:09:01.754Z,7.47
2023-01-13T23:11:30.655Z,7.56
2023-01-13T23:14:04.186Z,7.74
2023-01-13T23:16:35.615Z,8.03
2023-01-13T23:19:05.189Z,8.19
2023-01-13T23:21:36.821Z,8.37
2023-01-13T23:24:07.152Z,8.25
2023-01-13T23:26:35.837Z,8.19
2023-01-13T23:29:09.264Z,8.13
2023-01-13T23:31:38.142Z,8.04
2023-01-13T23:34:06.306Z,7.94
2023-01-13T23:36:37.194Z,8.05
2023-01-13T23:39:05.327Z,8.17
2023-01-13T23:41:33.348Z,8.33
2023-01-13T23:44:01.761Z,8.47
2023-01-13T23:46:32.836Z,8.31
2023-01-13T23:49:02.713Z,7.93
2023-01-13T23:51:31.013Z,7.67
2023-01-13T23:54:00.010Z,7.44
2023-01-13T23:56:30.822Z,7.28
2023-01-13T23:58:59.397Z,7.18
